createdAt,value
2022-08-04T00:01:29.693Z,3.30
2022-08-04T00:04:03.114Z,3.30
2022-08-04T00:06:43.541Z,3.05
2022-08-04T00:09:18.671Z,3.60
2022-08-04T00:11:48.965Z,3.53
2022-08-04T00:14:20.570Z,3.25
2022-08-04T00:16:52.481Z,3.28
2022-08-04T00:19:27.745Z,2.90
2022-08-04T00:22:00.462Z,2.83
2022-08-04T00:24:31.410Z,2.88
2022-08-04T00:26:59.630Z,3.47
2022-08-04T00:29:28.703Z,3.13
2022-08-04T00:31:58.096Z,3.08
2022-08-04T00:34:28.015Z,3.17
2022-08-04T00:36:57.026Z,3.25
2022-08-04T00:39:25.731Z,3.72
2022-08-04T00:42:27.238Z,3.15
2022-08-04T00:45:05.020Z,3.85
2022-08-04T00:47:43.257Z,2.95
2022-08-04T00:50:12.373Z,3.55
2022-08-04T00:52:56.371Z,3.45
2022-08-04T00:55:59.867Z,3.35
2022-08-04T00:58:43.621Z,3.42
2022-08-04T01:01:23.510Z,3.03
2022-08-04T01:03:58.696Z,3.30
2022-08-04T01:06:38.699Z,3.22
2022-08-04T01:09:25.530Z,3.10
2022-08-04T01:12:09.195Z,3.17
2022-08-04T01:14:49.349Z,3.10
2022-08-04T01:17:21.931Z,3.30
2022-08-04T01:20:01.272Z,3.15
2022-08-04T01:23:06.988Z,3.42
2022-08-04T01:25:59.683Z,3.13
2022-08-04T01:28:41.134Z,3.50
2022-08-04T01:31:19.794Z,3.47
2022-08-04T01:34:03.069Z,3.30
2022-08-04T01:36:35.750Z,3.20
2022-08-04T01:39:27.355Z,3.22
2022-08-04T01:41:58.715Z,3.05
2022-08-04T01:44:28.915Z,3.42
2022-08-04T01:46:58.974Z,2.92
2022-08-04T01:49:30.053Z,3.15
2022-08-04T01:52:11.238Z,3.55
2022-08-04T01:54:42.433Z,3.42
2022-08-04T01:57:37.695Z,3.22
2022-08-04T02:00:00.623Z,3.47
2022-08-04T02:02:29.957Z,3.70
2022-08-04T02:04:57.948Z,3.80
2022-08-04T02:07:37.590Z,3.92
2022-08-04T02:10:08.265Z,4.00
2022-08-04T02:12:53.836Z,3.90
2022-08-04T02:15:31.397Z,3.70
2022-08-04T02:18:05.709Z,3.72
2022-08-04T02:20:39.816Z,3.50
2022-08-04T02:23:10.730Z,4.07
2022-08-04T02:25:41.775Z,3.97
2022-08-04T02:28:31.236Z,4.00
2022-08-04T02:31:09.278Z,4.07
2022-08-04T02:33:40.624Z,3.42
2022-08-04T02:36:12.040Z,3.47
2022-08-04T02:39:06.504Z,3.38
2022-08-04T02:41:35.985Z,4.13
2022-08-04T02:44:05.811Z,3.97
2022-08-04T02:46:35.398Z,3.55
2022-08-04T02:49:06.729Z,3.92
2022-08-04T02:51:37.572Z,3.72
2022-08-04T02:54:07.414Z,3.50
2022-08-04T02:56:37.514Z,3.35
2022-08-04T02:59:09.287Z,3.95
2022-08-04T03:01:57.267Z,3.80
2022-08-04T03:04:42.607Z,3.55
2022-08-04T03:07:53.292Z,3.80
2022-08-04T03:10:48.477Z,3.72
2022-08-04T03:13:37.967Z,3.70
2022-08-04T03:16:43.987Z,3.97
2022-08-04T03:20:03.215Z,3.83
2022-08-04T03:23:18.003Z,4.27
2022-08-04T03:26:24.587Z,3.77
2022-08-04T03:29:36.023Z,3.95
2022-08-04T03:32:41.074Z,3.73
2022-08-04T03:35:37.983Z,3.93
2022-08-04T03:38:36.763Z,3.53
2022-08-04T03:41:51.915Z,4.32
2022-08-04T03:44:50.579Z,3.90
2022-08-04T03:47:44.649Z,3.70
2022-08-04T03:51:08.642Z,3.90
2022-08-04T03:53:46.237Z,3.70
2022-08-04T03:56:45.031Z,4.33
2022-08-04T03:59:54.545Z,4.43
2022-08-04T04:02:50.069Z,4.37
2022-08-04T04:05:59.036Z,3.90
2022-08-04T04:09:16.320Z,4.00
2022-08-04T04:12:21.041Z,4.33
2022-08-04T04:15:15.722Z,3.43
2022-08-04T04:18:09.459Z,3.83
2022-08-04T04:20:59.107Z,3.27
2022-08-04T04:23:49.502Z,3.57
2022-08-04T04:26:41.530Z,3.87
2022-08-04T04:29:30.636Z,4.30
2022-08-04T04:32:06.167Z,4.77
2022-08-04T04:34:46.397Z,3.97
2022-08-04T04:37:27.300Z,4.30
2022-08-04T04:40:15.858Z,3.90
2022-08-04T04:43:10.248Z,4.23
2022-08-04T04:45:46.520Z,4.03
2022-08-04T04:48:23.776Z,4.53
2022-08-04T04:51:04.523Z,4.23
2022-08-04T04:53:43.637Z,3.90
2022-08-04T04:56:18.857Z,4.60
2022-08-04T04:58:47.942Z,4.80
2022-08-04T05:01:38.644Z,4.37
2022-08-04T05:04:24.660Z,4.40
2022-08-04T05:07:11.531Z,4.10
2022-08-04T05:09:53.221Z,4.67
2022-08-04T05:13:05.141Z,3.90
2022-08-04T05:15:36.887Z,4.60
2022-08-04T05:18:07.487Z,3.67
2022-08-04T05:20:39.897Z,4.63
2022-08-04T05:23:14.315Z,5.23
2022-08-04T05:25:58.746Z,4.50
2022-08-04T05:28:34.263Z,4.20
2022-08-04T05:31:07.216Z,4.10
2022-08-04T05:33:42.814Z,5.20
2022-08-04T05:36:27.174Z,4.97
2022-08-04T05:39:03.647Z,5.10
2022-08-04T05:41:45.502Z,4.50
2022-08-04T05:44:18.339Z,5.20
2022-08-04T05:46:54.022Z,5.00
2022-08-04T05:49:23.897Z,4.47
2022-08-04T05:51:52.896Z,4.50
2022-08-04T05:54:22.143Z,4.70
2022-08-04T05:56:52.648Z,4.95
2022-08-04T05:59:23.740Z,5.18
2022-08-04T06:01:56.315Z,5.10
2022-08-04T06:04:29.156Z,4.80
2022-08-04T06:06:57.317Z,5.43
2022-08-04T06:09:25.511Z,4.22
2022-08-04T06:12:03.219Z,5.40
2022-08-04T06:14:36.224Z,6.20
2022-08-04T06:18:33.200Z,5.25
2022-08-04T06:20:19.669Z,4.97
2022-08-04T06:22:47.402Z,5.15
2022-08-04T06:25:20.629Z,4.75
2022-08-04T06:27:51.653Z,4.57
2022-08-04T06:30:20.729Z,5.18
2022-08-04T06:33:04.300Z,5.32
2022-08-04T06:35:34.455Z,4.80
2022-08-04T06:38:03.927Z,5.15
2022-08-04T06:40:34.235Z,4.57
2022-08-04T06:43:06.955Z,4.25
2022-08-04T06:45:36.938Z,3.95
2022-08-04T06:48:07.470Z,4.55
2022-08-04T06:51:26.829Z,4.78
2022-08-04T06:53:25.811Z,4.43
2022-08-04T06:55:54.580Z,4.53
2022-08-04T06:58:25.238Z,3.97
2022-08-04T07:00:54.695Z,4.30
2022-08-04T07:03:23.516Z,3.38
2022-08-04T07:05:52.621Z,3.75
2022-08-04T07:11:14.410Z,3.80
2022-08-04T07:13:45.504Z,3.30
2022-08-04T07:16:15.941Z,3.28
2022-08-04T07:18:43.990Z,3.53
2022-08-04T07:21:12.742Z,3.80
2022-08-04T07:23:40.695Z,4.13
2022-08-04T07:26:11.865Z,3.40
2022-08-04T07:28:43.509Z,3.53
2022-08-04T07:31:34.352Z,3.40
2022-08-04T07:34:17.289Z,3.42
2022-08-04T07:36:52.731Z,3.55
2022-08-04T07:39:28.552Z,3.35
2022-08-04T07:41:59.223Z,3.58
2022-08-04T07:44:31.641Z,3.40
2022-08-04T07:47:00.360Z,3.17
2022-08-04T07:49:55.900Z,3.28
2022-08-04T07:52:17.899Z,2.90
2022-08-04T07:54:46.321Z,3.03
2022-08-04T07:57:20.670Z,3.08
2022-08-04T08:00:03.899Z,3.10
2022-08-04T08:02:32.895Z,3.05
2022-08-04T08:05:00.821Z,2.83
2022-08-04T08:07:28.925Z,2.83
2022-08-04T08:09:56.821Z,3.05
2022-08-04T08:12:37.269Z,2.78
2022-08-04T08:15:15.952Z,2.60
2022-08-04T08:17:58.558Z,2.72
2022-08-04T08:20:30.856Z,2.85
2022-08-04T08:22:59.315Z,2.58
2022-08-04T08:25:27.406Z,2.40
2022-08-04T08:27:56.583Z,2.63
2022-08-04T08:30:31.694Z,3.20
2022-08-04T08:33:02.577Z,2.80
2022-08-04T08:35:53.369Z,2.78
2022-08-04T08:38:34.200Z,2.72
2022-08-04T08:41:26.193Z,2.55
2022-08-04T08:44:19.221Z,2.75
2022-08-04T08:47:20.397Z,2.67
2022-08-04T08:50:22.136Z,2.50
2022-08-04T08:53:03.804Z,2.70
2022-08-04T08:55:48.512Z,2.70
2022-08-04T08:58:32.638Z,2.78
2022-08-04T09:01:12.047Z,2.88
2022-08-04T09:04:03.978Z,2.80
2022-08-04T09:06:48.529Z,2.50
2022-08-04T09:09:35.309Z,2.80
2022-08-04T09:12:10.857Z,2.70
2022-08-04T09:14:46.387Z,2.47
2022-08-04T09:17:23.996Z,2.72
2022-08-04T09:20:00.465Z,2.55
2022-08-04T09:22:34.869Z,2.40
2022-08-04T09:25:09.801Z,2.40
2022-08-04T09:27:47.427Z,2.90
2022-08-04T09:30:20.895Z,2.50
2022-08-04T09:32:58.796Z,2.60
2022-08-04T09:35:38.543Z,2.83
2022-08-04T09:38:14.719Z,2.55
2022-08-04T09:40:53.375Z,2.40
2022-08-04T09:43:59.488Z,2.53
2022-08-04T09:46:27.471Z,2.28
2022-08-04T09:49:00.974Z,2.70
2022-08-04T09:51:57.579Z,2.72
2022-08-04T09:54:34.639Z,2.40
2022-08-04T09:57:11.950Z,2.67
2022-08-04T09:59:46.901Z,2.40
2022-08-04T10:02:17.099Z,2.70
2022-08-04T10:04:46.520Z,2.60
2022-08-04T10:07:30.062Z,2.70
2022-08-04T10:10:16.327Z,2.10
2022-08-04T10:12:59.095Z,2.47
2022-08-04T10:15:35.131Z,2.80
2022-08-04T10:18:16.737Z,2.65
2022-08-04T10:20:56.932Z,3.90
2022-08-04T10:23:56.432Z,3.70
2022-08-04T10:26:38.154Z,3.00
2022-08-04T10:29:12.093Z,2.78
2022-08-04T10:31:47.598Z,2.55
2022-08-04T10:34:20.285Z,2.38
2022-08-04T10:36:55.280Z,2.78
2022-08-04T10:39:43.337Z,2.65
2022-08-04T10:42:21.667Z,2.75
2022-08-04T10:45:02.327Z,3.20
2022-08-04T10:47:36.509Z,2.80
2022-08-04T10:50:06.027Z,3.00
2022-08-04T10:52:39.570Z,2.30
2022-08-04T10:55:18.403Z,2.55
2022-08-04T10:57:52.402Z,2.65
2022-08-04T11:00:25.745Z,2.20
2022-08-04T11:03:01.801Z,2.55
2022-08-04T11:05:32.830Z,2.47
2022-08-04T11:08:20.545Z,2.40
2022-08-04T11:11:03.736Z,2.22
2022-08-04T11:13:36.576Z,2.35
2022-08-04T11:16:08.017Z,2.20
2022-08-04T11:18:46.887Z,2.50
2022-08-04T11:21:20.976Z,2.13
2022-08-04T11:23:56.230Z,2.45
2022-08-04T11:26:45.525Z,3.10
2022-08-04T11:29:21.788Z,2.88
2022-08-04T11:31:52.125Z,2.72
2022-08-04T11:34:34.433Z,3.00
2022-08-04T11:37:13.925Z,2.65
2022-08-04T11:39:46.902Z,2.80
2022-08-04T11:42:22.035Z,2.60
2022-08-04T11:44:53.468Z,2.53
2022-08-04T11:47:30.329Z,2.70
2022-08-04T11:50:04.544Z,2.67
2022-08-04T11:52:34.681Z,2.72
2022-08-04T11:55:06.700Z,2.25
2022-08-04T11:57:36.804Z,2.75
2022-08-04T12:00:10.007Z,2.97
2022-08-04T12:03:16.432Z,2.85
2022-08-04T12:05:53.602Z,2.80
2022-08-04T12:08:34.417Z,2.58
2022-08-04T12:11:13.330Z,2.67
2022-08-04T12:13:50.222Z,2.50
2022-08-04T12:16:22.475Z,2.80
2022-08-04T12:18:57.299Z,2.90
2022-08-04T12:21:32.866Z,2.50
2022-08-04T12:24:04.793Z,2.33
2022-08-04T12:26:38.318Z,2.13
2022-08-04T12:29:10.925Z,2.30
2022-08-04T12:31:53.953Z,2.22
2022-08-04T12:34:33.153Z,2.15
2022-08-04T12:37:05.982Z,2.17
2022-08-04T12:39:35.087Z,2.17
2022-08-04T12:42:27.974Z,2.35
2022-08-04T12:45:00.889Z,2.28
2022-08-04T12:47:31.198Z,2.38
2022-08-04T12:50:05.359Z,2.10
2022-08-04T12:55:33.580Z,2.58
2022-08-04T12:58:03.903Z,2.08
2022-08-04T13:00:41.879Z,2.50
2022-08-04T13:03:13.415Z,2.28
2022-08-04T13:05:42.355Z,2.85
2022-08-04T13:08:12.279Z,2.83
2022-08-04T13:10:42.401Z,2.50
2022-08-04T13:13:17.065Z,2.53
2022-08-04T13:15:57.741Z,2.85
2022-08-04T13:18:31.901Z,2.20
2022-08-04T13:21:20.506Z,2.95
2022-08-04T13:26:54.434Z,2.47
2022-08-04T13:30:00.715Z,2.60
2022-08-04T13:30:25.284Z,2.65
2022-08-04T13:32:22.187Z,2.30
2022-08-04T13:34:52.421Z,2.50
2022-08-04T13:37:26.369Z,2.05
2022-08-04T13:39:56.536Z,2.50
2022-08-04T13:42:27.047Z,2.50
2022-08-04T13:44:56.985Z,2.38
2022-08-04T13:47:29.295Z,2.63
2022-08-04T13:50:12.954Z,2.60
2022-08-04T13:52:42.131Z,2.33
2022-08-04T13:55:20.616Z,2.75
2022-08-04T13:57:53.841Z,2.95
2022-08-04T14:00:29.920Z,2.95
2022-08-04T14:03:22.847Z,2.67
2022-08-04T14:06:14.878Z,2.90
2022-08-04T14:08:50.352Z,2.70
2022-08-04T14:12:09.138Z,2.50
2022-08-04T14:14:19.721Z,2.85
2022-08-04T14:17:07.022Z,2.35
2022-08-04T14:19:57.165Z,2.72
2022-08-04T14:22:45.742Z,2.47
2022-08-04T14:25:16.880Z,2.80
2022-08-04T14:27:47.564Z,2.70
2022-08-04T14:30:26.934Z,2.97
2022-08-04T14:34:03.502Z,2.75
2022-08-04T14:35:58.444Z,2.30
2022-08-04T14:38:43.609Z,2.45
2022-08-04T14:41:12.003Z,2.90
2022-08-04T14:43:45.823Z,2.45
2022-08-04T14:46:14.254Z,2.33
2022-08-04T14:49:01.453Z,2.70
2022-08-04T14:51:36.443Z,2.70
2022-08-04T14:54:08.947Z,2.50
2022-08-04T14:56:48.360Z,2.20
2022-08-04T14:59:16.283Z,2.55
2022-08-04T15:01:45.787Z,2.10
2022-08-04T15:04:29.350Z,2.35
2022-08-04T15:06:58.742Z,2.85
2022-08-04T15:09:27.177Z,2.47
2022-08-04T15:11:55.071Z,2.85
2022-08-04T15:14:37.568Z,2.10
2022-08-04T15:17:11.982Z,2.38
2022-08-04T15:19:40.993Z,2.30
2022-08-04T15:22:25.295Z,2.65
2022-08-04T15:24:54.970Z,2.95
2022-08-04T15:27:26.934Z,2.90
2022-08-04T15:30:01.606Z,2.63
2022-08-04T15:32:31.776Z,3.33
2022-08-04T15:35:03.776Z,3.08
2022-08-04T15:37:41.048Z,2.83
2022-08-04T15:40:13.066Z,2.95
2022-08-04T15:42:47.143Z,3.53
2022-08-04T15:46:02.572Z,3.13
2022-08-04T15:48:27.131Z,3.55
2022-08-04T15:51:15.322Z,3.00
2022-08-04T15:54:27.820Z,2.58
2022-08-04T15:57:02.150Z,2.33
2022-08-04T16:00:03.665Z,2.75
2022-08-04T16:02:39.413Z,3.10
2022-08-04T16:05:42.085Z,2.95
2022-08-04T16:08:13.046Z,3.22
2022-08-04T16:10:44.806Z,2.90
2022-08-04T16:13:15.019Z,2.72
2022-08-04T16:15:51.648Z,2.50
2022-08-04T16:18:40.285Z,2.97
2022-08-04T16:21:19.521Z,3.30
2022-08-04T16:24:07.411Z,3.00
2022-08-04T16:26:56.437Z,3.08
2022-08-04T16:29:37.955Z,2.65
2022-08-04T16:32:18.231Z,2.53
2022-08-04T16:34:55.140Z,2.10
2022-08-04T16:37:30.112Z,2.03
2022-08-04T16:40:38.445Z,2.35
2022-08-04T16:43:10.144Z,2.20
2022-08-04T16:45:56.472Z,1.92
2022-08-04T16:48:27.287Z,2.15
2022-08-04T16:51:05.848Z,2.53
2022-08-04T16:54:04.126Z,2.00
2022-08-04T16:56:33.502Z,2.17
2022-08-04T16:59:09.819Z,2.03
2022-08-04T17:01:38.638Z,2.40
2022-08-04T17:04:09.304Z,2.30
2022-08-04T17:06:39.204Z,1.95
2022-08-04T17:09:10.870Z,2.20
2022-08-04T17:11:38.944Z,2.40
2022-08-04T17:14:08.465Z,1.90
2022-08-04T17:16:38.244Z,1.90
2022-08-04T17:19:25.283Z,2.13
2022-08-04T17:22:02.810Z,2.20
2022-08-04T17:24:32.865Z,2.22
2022-08-04T17:27:00.944Z,2.30
2022-08-04T17:32:21.607Z,2.55
2022-08-04T17:34:51.238Z,2.20
2022-08-04T17:37:39.284Z,2.38
2022-08-04T17:40:10.696Z,2.38
2022-08-04T17:42:40.272Z,1.92
2022-08-04T17:48:02.841Z,2.05
2022-08-04T17:50:35.892Z,2.15
2022-08-04T17:53:11.857Z,2.10
2022-08-04T17:55:42.348Z,2.20
2022-08-04T17:58:21.116Z,2.20
2022-08-04T18:01:16.684Z,2.28
2022-08-04T18:03:51.959Z,2.20
2022-08-04T18:06:21.931Z,1.90
2022-08-04T18:08:54.868Z,2.35
2022-08-04T18:11:28.763Z,2.17
2022-08-04T18:14:09.874Z,2.40
2022-08-04T18:16:45.621Z,1.88
2022-08-04T18:19:14.907Z,2.08
2022-08-04T18:22:00.599Z,2.20
2022-08-04T18:24:35.973Z,2.08
2022-08-04T18:27:19.712Z,1.73
2022-08-04T18:30:14.557Z,2.03
2022-08-04T18:32:37.489Z,2.00
2022-08-04T18:35:19.610Z,2.25
2022-08-04T18:38:05.927Z,2.20
2022-08-04T18:40:53.315Z,2.05
2022-08-04T18:43:28.334Z,2.20
2022-08-04T18:45:59.522Z,2.05
2022-08-04T18:48:36.771Z,1.98
2022-08-04T18:51:22.712Z,2.53
2022-08-04T18:56:40.531Z,2.47
2022-08-04T18:59:28.344Z,2.20
2022-08-04T19:02:12.673Z,2.42
2022-08-04T19:04:49.589Z,2.60
2022-08-04T19:07:28.815Z,2.17
2022-08-04T19:09:59.630Z,2.65
2022-08-04T19:12:28.752Z,2.30
2022-08-04T19:15:08.077Z,2.20
2022-08-04T19:17:53.506Z,2.33
2022-08-04T19:20:27.198Z,2.60
2022-08-04T19:24:29.052Z,2.15
2022-08-04T19:25:58.857Z,2.35
2022-08-04T19:28:34.822Z,2.47
2022-08-04T19:31:04.317Z,2.10
2022-08-04T19:33:58.328Z,2.10
2022-08-04T19:36:27.742Z,2.55
2022-08-04T19:38:58.131Z,2.08
2022-08-04T19:41:26.896Z,2.67
2022-08-04T19:43:55.409Z,3.05
2022-08-04T19:46:24.732Z,3.00
2022-08-04T19:48:59.306Z,2.40
2022-08-04T19:51:30.582Z,2.00
2022-08-04T19:54:02.731Z,2.55
2022-08-04T19:56:40.618Z,2.35
2022-08-04T19:59:09.688Z,2.22
2022-08-04T20:01:44.855Z,2.50
2022-08-04T20:04:13.460Z,2.20
2022-08-04T20:06:43.056Z,2.67
2022-08-04T20:09:25.607Z,2.60
2022-08-04T20:11:55.451Z,2.33
2022-08-04T20:17:11.903Z,2.70
2022-08-04T20:19:51.476Z,2.40
2022-08-04T20:22:52.183Z,2.25
2022-08-04T20:25:35.933Z,2.20
2022-08-04T20:27:59.902Z,2.30
2022-08-04T20:30:29.087Z,2.00
2022-08-04T20:32:57.007Z,2.38
2022-08-04T20:35:26.625Z,2.28
2022-08-04T20:38:00.355Z,2.60
2022-08-04T20:40:29.810Z,2.28
2022-08-04T20:42:58.126Z,2.30
2022-08-04T20:45:55.926Z,2.63
2022-08-04T20:48:14.956Z,2.70
2022-08-04T20:50:46.139Z,2.33
2022-08-04T20:53:16.732Z,2.53
2022-08-04T20:55:55.191Z,2.80
2022-08-04T20:58:27.474Z,2.60
2022-08-04T21:00:56.039Z,2.90
2022-08-04T21:03:49.227Z,2.30
2022-08-04T21:06:13.097Z,2.78
2022-08-04T21:08:57.713Z,2.78
2022-08-04T21:11:32.586Z,2.45
2022-08-04T21:14:01.104Z,3.13
2022-08-04T21:16:55.782Z,3.28
2022-08-04T21:19:17.203Z,2.97
2022-08-04T21:21:53.305Z,3.13
2022-08-04T21:27:12.034Z,3.00
2022-08-04T21:29:40.415Z,2.92
2022-08-04T21:32:09.653Z,3.33
2022-08-04T21:34:39.927Z,2.78
2022-08-04T21:37:10.351Z,3.20
2022-08-04T21:39:50.485Z,2.80
2022-08-04T21:42:42.780Z,2.35
2022-08-04T21:45:16.346Z,2.60
2022-08-04T21:47:49.512Z,2.90
2022-08-04T21:50:19.878Z,2.90
2022-08-04T21:52:48.414Z,3.17
2022-08-04T21:55:19.003Z,2.90
2022-08-04T21:57:49.534Z,2.40
2022-08-04T22:00:19.702Z,2.67
2022-08-04T22:02:53.344Z,2.80
2022-08-04T22:05:21.795Z,2.50
2022-08-04T22:07:50.892Z,2.80
2022-08-04T22:10:31.970Z,2.55
2022-08-04T22:13:06.867Z,2.90
2022-08-04T22:16:03.550Z,2.90
2022-08-04T22:21:12.175Z,3.17
2022-08-04T22:23:45.448Z,2.30
2022-08-04T22:26:20.171Z,2.92
2022-08-04T22:28:55.478Z,2.53
2022-08-04T22:31:24.873Z,2.92
2022-08-04T22:33:55.793Z,2.40
2022-08-04T22:36:24.782Z,2.90
2022-08-04T22:39:04.455Z,3.08
2022-08-04T22:42:03.054Z,2.95
2022-08-04T22:44:24.388Z,2.78
2022-08-04T22:47:00.415Z,3.13
2022-08-04T22:49:31.365Z,2.78
2022-08-04T22:51:59.719Z,2.88
2022-08-04T22:54:31.817Z,2.95
2022-08-04T22:57:01.376Z,2.85
2022-08-04T22:59:29.286Z,2.75
2022-08-04T23:01:59.735Z,2.55
2022-08-04T23:04:30.037Z,2.75
2022-08-04T23:06:58.021Z,2.40
2022-08-04T23:09:26.973Z,2.85
2022-08-04T23:12:30.443Z,2.63
2022-08-04T23:14:59.098Z,2.28
2022-08-04T23:17:28.322Z,2.75
2022-08-04T23:19:59.036Z,2.50
2022-08-04T23:22:40.962Z,3.17
2022-08-04T23:25:15.875Z,3.30
2022-08-04T23:27:48.268Z,2.60
2022-08-04T23:30:21.952Z,2.70
2022-08-04T23:32:53.612Z,2.58
2022-08-04T23:35:22.087Z,2.75
2022-08-04T23:37:57.176Z,2.88
2022-08-04T23:40:33.531Z,2.88
2022-08-04T23:43:12.287Z,2.60
2022-08-04T23:46:03.883Z,2.97
2022-08-04T23:48:33.654Z,2.72
2022-08-04T23:51:13.737Z,2.95
2022-08-04T23:54:02.334Z,3.03
2022-08-04T23:56:30.439Z,3.08
2022-08-04T23:59:03.922Z,3.40
